createdAt,value
2018-02-25T00:00:08.664Z,-3.60
2018-02-25T00:02:36.619Z,-3.70
2018-02-25T00:05:04.107Z,-3.70
2018-02-25T00:07:31.994Z,-3.70
2018-02-25T00:09:59.491Z,-3.70
2018-02-25T00:12:26.994Z,-3.70
2018-02-25T00:14:54.495Z,-3.70
2018-02-25T00:17:21.995Z,-3.80
2018-02-25T00:19:49.883Z,-3.80
2018-02-25T00:22:30.065Z,-3.80
2018-02-25T00:24:57.580Z,-3.90
2018-02-25T00:27:25.081Z,-3.90
2018-02-25T00:29:52.591Z,-3.90
2018-02-25T00:32:20.084Z,-3.90
2018-02-25T00:34:47.579Z,-4.00
2018-02-25T00:37:15.097Z,-4.00
2018-02-25T00:39:42.575Z,-4.00
2018-02-25T00:42:10.081Z,-4.10
2018-02-25T00:44:37.960Z,-4.10
2018-02-25T00:47:05.459Z,-4.00
2018-02-25T00:49:32.958Z,-4.10
2018-02-25T00:52:00.455Z,-4.00
2018-02-25T00:54:27.955Z,-4.00
2018-02-25T00:56:55.844Z,-4.10
2018-02-25T00:59:23.718Z,-4.20
2018-02-25T01:01:51.242Z,-4.20
2018-02-25T01:04:18.767Z,-4.20
2018-02-25T01:06:46.262Z,-4.20
2018-02-25T01:09:14.168Z,-4.30
2018-02-25T01:11:41.658Z,-4.30
2018-02-25T01:14:09.142Z,-4.40
2018-02-25T01:16:37.038Z,-4.40
2018-02-25T01:19:04.551Z,-4.40
2018-02-25T01:21:32.036Z,-4.40
2018-02-25T01:23:59.919Z,-4.40
2018-02-25T01:26:27.428Z,-4.40
2018-02-25T01:28:54.919Z,-4.50
2018-02-25T01:31:22.803Z,-4.60
2018-02-25T01:33:50.323Z,-4.60
2018-02-25T01:36:17.975Z,-4.60
2018-02-25T01:38:45.887Z,-4.70
2018-02-25T01:41:13.374Z,-4.70
2018-02-25T01:43:40.888Z,-4.80
2018-02-25T01:46:08.376Z,-4.80
2018-02-25T01:48:35.866Z,-4.80
2018-02-25T01:51:05.149Z,-4.80
2018-02-25T01:53:32.641Z,-4.90
2018-02-25T01:56:00.128Z,-5.00
2018-02-25T01:58:27.624Z,-5.00
2018-02-25T02:00:55.131Z,-5.10
2018-02-25T02:03:22.644Z,-5.10
2018-02-25T02:05:50.149Z,-5.10
2018-02-25T02:08:17.635Z,-5.10
2018-02-25T02:10:45.124Z,-5.10
2018-02-25T02:13:12.622Z,-5.20
2018-02-25T02:15:40.173Z,-5.20
2018-02-25T02:18:08.062Z,-5.20
2018-02-25T02:20:35.557Z,-5.20
2018-02-25T02:23:03.086Z,-5.30
2018-02-25T02:25:30.566Z,-5.30
2018-02-25T02:27:58.053Z,-5.30
2018-02-25T02:30:25.948Z,-5.30
2018-02-25T02:32:53.435Z,-5.30
2018-02-25T02:35:20.932Z,-5.40
2018-02-25T02:37:48.832Z,-5.50
2018-02-25T02:40:16.316Z,-5.50
2018-02-25T02:42:43.820Z,-5.50
2018-02-25T02:45:11.309Z,-5.50
2018-02-25T02:47:38.812Z,-5.50
2018-02-25T02:50:06.300Z,-5.60
2018-02-25T02:52:33.820Z,-5.50
2018-02-25T02:55:01.312Z,-5.60
2018-02-25T02:57:29.210Z,-5.60
2018-02-25T02:59:56.699Z,-5.60
2018-02-25T03:02:24.191Z,-5.60
2018-02-25T03:04:51.697Z,-5.70
2018-02-25T03:07:19.199Z,-5.80
2018-02-25T03:09:47.075Z,-5.80
2018-02-25T03:12:14.589Z,-5.80
2018-02-25T03:14:42.119Z,-5.90
2018-02-25T03:17:09.611Z,-5.90
2018-02-25T03:19:37.107Z,-5.90
2018-02-25T03:22:04.615Z,-5.90
2018-02-25T03:24:32.103Z,-5.90
2018-02-25T03:27:00.000Z,-5.90
2018-02-25T03:29:27.507Z,-5.90
2018-02-25T03:31:54.995Z,-6.00
2018-02-25T03:34:22.941Z,-6.00
2018-02-25T03:36:50.435Z,-6.00
2018-02-25T03:39:17.927Z,-6.00
2018-02-25T03:41:45.435Z,-6.10
2018-02-25T03:44:13.312Z,-6.10
2018-02-25T03:46:40.801Z,-6.10
2018-02-25T03:49:08.301Z,-6.20
2018-02-25T03:51:36.187Z,-6.30
2018-02-25T03:54:03.671Z,-6.30
2018-02-25T03:56:31.184Z,-6.30
2018-02-25T03:58:59.064Z,-6.40
2018-02-25T04:01:26.956Z,-6.40
2018-02-25T04:03:54.451Z,-6.40
2018-02-25T04:06:21.965Z,-6.50
2018-02-25T04:08:49.446Z,-6.50
2018-02-25T04:11:16.953Z,-6.50
2018-02-25T04:13:44.844Z,-6.50
2018-02-25T04:16:12.351Z,-6.50
2018-02-25T04:18:39.867Z,-6.60
2018-02-25T04:21:07.390Z,-6.60
2018-02-25T04:23:35.359Z,-6.60
2018-02-25T04:26:03.253Z,-6.70
2018-02-25T04:28:30.814Z,-6.70
2018-02-25T04:30:58.321Z,-6.70
2018-02-25T04:33:25.810Z,-6.70
2018-02-25T04:35:53.295Z,-6.70
2018-02-25T04:38:20.799Z,-6.80
2018-02-25T04:40:48.283Z,-6.80
2018-02-25T04:43:15.776Z,-6.80
2018-02-25T04:45:43.255Z,-6.70
2018-02-25T04:48:10.760Z,-6.80
2018-02-25T04:50:38.264Z,-6.80
2018-02-25T04:53:05.752Z,-6.80
2018-02-25T04:55:33.644Z,-6.80
2018-02-25T04:58:01.163Z,-6.80
2018-02-25T05:00:28.644Z,-6.90
2018-02-25T05:02:56.161Z,-6.80
2018-02-25T05:05:23.669Z,-6.80
2018-02-25T05:07:51.158Z,-6.90
2018-02-25T05:10:18.679Z,-6.90
2018-02-25T05:12:46.231Z,-6.90
2018-02-25T05:15:13.776Z,-6.90
2018-02-25T05:17:41.690Z,-7.00
2018-02-25T05:20:09.208Z,-7.00
2018-02-25T05:22:37.124Z,-7.00
2018-02-25T05:25:04.662Z,-7.00
2018-02-25T05:27:32.245Z,-7.00
2018-02-25T05:29:59.803Z,-7.00
2018-02-25T05:32:27.320Z,-7.00
2018-02-25T05:34:54.855Z,-7.00
2018-02-25T05:37:22.759Z,-7.10
2018-02-25T05:39:50.398Z,-7.10
2018-02-25T05:42:18.376Z,-7.00
2018-02-25T05:44:45.932Z,-7.00
2018-02-25T05:47:13.445Z,-7.10
2018-02-25T05:49:41.009Z,-7.10
2018-02-25T05:52:08.506Z,-7.20
2018-02-25T05:54:36.016Z,-7.10
2018-02-25T05:57:03.532Z,-7.20
2018-02-25T05:59:31.101Z,-7.10
2018-02-25T06:01:58.632Z,-7.10
2018-02-25T06:04:26.191Z,-7.20
2018-02-25T06:06:53.720Z,-7.10
2018-02-25T06:09:21.269Z,-7.10
2018-02-25T06:11:48.781Z,-7.20
2018-02-25T06:14:16.292Z,-7.20
2018-02-25T06:16:44.209Z,-7.20
2018-02-25T06:19:11.722Z,-7.20
2018-02-25T06:21:39.268Z,-7.20
2018-02-25T06:24:06.803Z,-7.20
2018-02-25T06:26:34.340Z,-7.20
2018-02-25T06:29:01.893Z,-7.20
2018-02-25T06:31:29.424Z,-7.20
2018-02-25T06:33:57.315Z,-7.20
2018-02-25T06:36:24.812Z,-7.20
2018-02-25T06:38:52.324Z,-7.10
2018-02-25T06:41:19.879Z,-7.10
2018-02-25T06:43:47.413Z,-7.10
2018-02-25T06:46:15.314Z,-7.10
2018-02-25T06:48:42.840Z,-7.10
2018-02-25T06:51:10.734Z,-7.10
2018-02-25T06:53:38.275Z,-7.10
2018-02-25T06:56:05.856Z,-7.10
2018-02-25T06:58:33.395Z,-7.10
2018-02-25T07:01:01.284Z,-7.00
2018-02-25T07:03:28.925Z,-7.00
2018-02-25T07:05:56.431Z,-6.90
2018-02-25T07:08:23.956Z,-6.80
2018-02-25T07:10:51.444Z,-6.50
2018-02-25T07:13:18.936Z,-6.20
2018-02-25T07:15:46.823Z,-5.40
2018-02-25T07:18:14.311Z,-5.40
2018-02-25T07:20:41.820Z,-5.10
2018-02-25T07:23:09.767Z,-4.60
2018-02-25T07:25:37.258Z,-4.70
2018-02-25T07:28:04.763Z,-4.40
2018-02-25T07:30:32.267Z,-4.10
2018-02-25T07:33:00.159Z,-3.70
2018-02-25T07:35:27.643Z,-3.70
2018-02-25T07:37:55.142Z,-3.50
2018-02-25T07:40:23.035Z,-3.20
2018-02-25T07:42:50.516Z,-3.20
2018-02-25T07:45:18.108Z,-3.10
2018-02-25T07:47:45.615Z,-3.00
2018-02-25T07:50:13.100Z,-2.80
2018-02-25T07:52:40.625Z,-2.80
2018-02-25T07:55:08.120Z,-2.60
2018-02-25T07:57:35.619Z,-2.40
2018-02-25T08:00:03.519Z,-2.10
2018-02-25T08:02:31.019Z,-2.10
2018-02-25T08:04:58.500Z,-2.00
2018-02-25T08:07:26.395Z,-2.00
2018-02-25T08:09:53.918Z,-2.00
2018-02-25T08:12:21.822Z,-1.70
2018-02-25T08:14:49.311Z,-1.70
2018-02-25T08:17:16.799Z,-1.50
2018-02-25T08:19:44.674Z,-1.70
2018-02-25T08:22:12.183Z,-1.80
2018-02-25T08:24:39.687Z,-1.40
2018-02-25T08:27:07.563Z,-1.10
2018-02-25T08:29:35.052Z,-1.10
2018-02-25T08:32:02.570Z,-1.30
2018-02-25T08:34:30.195Z,-1.00
2018-02-25T08:36:57.681Z,-0.70
2018-02-25T08:39:25.190Z,-0.60
2018-02-25T08:41:52.728Z,-0.50
2018-02-25T08:44:20.327Z,-0.50
2018-02-25T08:46:47.817Z,-0.40
2018-02-25T08:49:15.362Z,-0.10
2018-02-25T08:51:43.260Z,0.10
2018-02-25T08:54:10.756Z,0.10
2018-02-25T08:56:38.239Z,0.00
2018-02-25T08:59:06.119Z,-0.10
2018-02-25T09:01:34.008Z,0.40
2018-02-25T09:04:01.500Z,0.40
2018-02-25T09:06:28.990Z,0.00
2018-02-25T09:08:56.882Z,0.10
2018-02-25T09:11:24.363Z,0.10
2018-02-25T09:13:51.867Z,0.20
2018-02-25T09:16:19.755Z,0.30
2018-02-25T09:18:47.235Z,0.30
2018-02-25T09:21:14.726Z,0.60
2018-02-25T09:23:42.214Z,0.70
2018-02-25T09:26:10.118Z,0.10
2018-02-25T09:28:37.703Z,0.10
2018-02-25T09:31:05.163Z,0.00
2018-02-25T09:33:32.659Z,0.20
2018-02-25T09:36:00.150Z,0.30
2018-02-25T09:38:27.626Z,0.10
2018-02-25T09:40:55.115Z,0.30
2018-02-25T09:43:22.991Z,0.10
2018-02-25T09:45:50.899Z,-0.10
2018-02-25T09:48:18.397Z,0.00
2018-02-25T09:50:53.968Z,0.20
2018-02-25T09:53:21.458Z,0.20
2018-02-25T09:55:48.962Z,0.50
2018-02-25T09:58:16.856Z,0.60
2018-02-25T10:00:44.359Z,0.60
2018-02-25T10:03:11.882Z,0.60
2018-02-25T10:05:39.388Z,0.80
2018-02-25T10:08:06.875Z,0.90
2018-02-25T10:10:34.411Z,1.10
2018-02-25T10:13:02.335Z,1.70
2018-02-25T10:15:29.843Z,1.70
2018-02-25T10:17:57.341Z,2.20
2018-02-25T10:20:24.830Z,2.40
2018-02-25T10:22:52.350Z,2.00
2018-02-25T10:25:19.856Z,1.50
2018-02-25T10:27:47.329Z,1.80
2018-02-25T10:30:15.203Z,1.60
2018-02-25T10:32:42.723Z,1.60
2018-02-25T10:35:10.232Z,1.80
2018-02-25T10:37:37.731Z,1.60
2018-02-25T10:40:05.211Z,1.60
2018-02-25T10:42:32.707Z,1.30
2018-02-25T10:45:00.207Z,1.10
2018-02-25T10:47:27.695Z,1.50
2018-02-25T10:49:55.596Z,1.50
2018-02-25T10:52:23.090Z,1.50
2018-02-25T10:54:50.575Z,1.80
2018-02-25T10:57:18.456Z,1.20
2018-02-25T10:59:45.935Z,1.20
2018-02-25T11:02:13.427Z,1.30
2018-02-25T11:04:40.921Z,1.60
2018-02-25T11:07:08.459Z,1.20
2018-02-25T11:09:35.962Z,1.60
2018-02-25T11:12:03.467Z,1.70
2018-02-25T11:14:32.184Z,1.70
2018-02-25T11:16:59.681Z,1.70
2018-02-25T11:19:27.167Z,1.60
2018-02-25T11:21:54.670Z,1.60
2018-02-25T11:24:22.194Z,1.60
2018-02-25T11:26:50.074Z,1.30
2018-02-25T11:29:17.976Z,0.80
2018-02-25T11:31:45.460Z,0.80
2018-02-25T11:34:12.934Z,0.70
2018-02-25T11:36:40.469Z,0.70
2018-02-25T11:39:07.932Z,0.40
2018-02-25T11:41:35.415Z,0.30
2018-02-25T11:44:03.287Z,0.10
2018-02-25T11:46:31.174Z,0.00
2018-02-25T11:48:58.670Z,0.00
2018-02-25T11:51:26.168Z,0.00
2018-02-25T11:53:54.055Z,0.10
2018-02-25T11:56:21.535Z,0.20
2018-02-25T11:58:49.017Z,0.20
2018-02-25T12:01:16.512Z,-0.10
2018-02-25T12:03:44.401Z,0.00
2018-02-25T12:06:11.897Z,0.00
2018-02-25T12:08:39.390Z,-0.10
2018-02-25T12:11:07.303Z,-0.30
2018-02-25T12:13:34.797Z,-0.30
2018-02-25T12:16:02.304Z,-0.20
2018-02-25T12:18:29.800Z,-0.20
2018-02-25T12:20:57.279Z,0.00
2018-02-25T12:23:25.168Z,0.50
2018-02-25T12:25:52.648Z,0.50
2018-02-25T12:28:20.123Z,0.60
2018-02-25T12:30:47.613Z,0.80
2018-02-25T12:33:15.528Z,1.10
2018-02-25T12:35:43.003Z,1.10
2018-02-25T12:38:10.488Z,0.80
2018-02-25T12:40:37.999Z,1.10
2018-02-25T12:43:05.499Z,1.10
2018-02-25T12:45:32.987Z,0.90
2018-02-25T12:48:00.483Z,0.80
2018-02-25T12:50:28.004Z,0.80
2018-02-25T12:52:55.508Z,1.00
2018-02-25T12:55:22.995Z,1.10
2018-02-25T12:57:50.475Z,1.10
2018-02-25T13:00:18.211Z,1.20
2018-02-25T13:02:46.343Z,0.90
2018-02-25T13:05:14.033Z,0.90
2018-02-25T13:07:41.793Z,1.20
2018-02-25T13:10:09.838Z,2.10
2018-02-25T13:12:37.510Z,2.10
2018-02-25T13:15:05.219Z,2.40
2018-02-25T13:17:33.175Z,2.50
2018-02-25T13:20:01.264Z,2.70
2018-02-25T13:22:29.019Z,3.30
2018-02-25T13:24:56.817Z,3.30
2018-02-25T13:27:24.516Z,3.60
2018-02-25T13:29:52.245Z,3.80
2018-02-25T13:32:20.150Z,4.00
2018-02-25T13:34:47.890Z,4.00
2018-02-25T13:37:15.972Z,2.90
2018-02-25T13:39:43.997Z,2.50
2018-02-25T13:42:11.655Z,2.60
2018-02-25T13:44:39.348Z,2.70
2018-02-25T13:47:07.042Z,3.40
2018-02-25T13:49:34.808Z,3.60
2018-02-25T13:52:02.945Z,4.00
2018-02-25T13:54:30.645Z,4.10
2018-02-25T13:56:58.296Z,3.20
2018-02-25T13:59:26.195Z,2.20
2018-02-25T14:01:53.937Z,1.30
2018-02-25T14:04:21.609Z,0.90
2018-02-25T14:06:51.111Z,0.60
2018-02-25T14:09:18.853Z,0.40
2018-02-25T14:11:46.977Z,0.10
2018-02-25T14:14:14.715Z,0.10
2018-02-25T14:16:42.577Z,0.10
2018-02-25T14:19:10.074Z,-0.20
2018-02-25T14:21:37.639Z,-0.20
2018-02-25T14:24:05.127Z,-0.30
2018-02-25T14:26:32.620Z,-0.40
2018-02-25T14:29:00.161Z,-0.50
2018-02-25T14:31:28.112Z,-0.40
2018-02-25T14:33:56.031Z,-0.30
2018-02-25T14:36:23.695Z,-0.30
2018-02-25T14:38:51.289Z,-0.20
2018-02-25T14:41:19.664Z,-0.20
2018-02-25T14:43:48.161Z,-0.20
2018-02-25T14:46:16.481Z,-0.40
2018-02-25T14:48:44.559Z,-0.40
2018-02-25T14:51:12.040Z,-0.50
2018-02-25T14:53:39.704Z,-0.60
2018-02-25T14:56:07.334Z,-0.60
2018-02-25T14:58:34.908Z,-0.70
2018-02-25T15:01:03.078Z,-0.80
2018-02-25T15:03:30.785Z,-0.90
2018-02-25T15:05:58.875Z,-1.10
2018-02-25T15:08:26.521Z,-1.10
2018-02-25T15:10:54.247Z,-1.30
2018-02-25T15:13:22.336Z,-1.40
2018-02-25T15:15:50.448Z,-1.40
2018-02-25T15:18:18.354Z,-1.40
2018-02-25T15:20:45.969Z,-1.40
2018-02-25T15:23:13.740Z,-1.50
2018-02-25T15:25:41.435Z,-1.50
2018-02-25T15:28:09.097Z,-1.60
2018-02-25T15:30:36.734Z,-1.60
2018-02-25T15:33:04.407Z,-1.70
2018-02-25T15:35:32.242Z,-1.70
2018-02-25T15:37:59.891Z,-1.70
2018-02-25T15:40:27.544Z,-1.70
2018-02-25T15:42:55.259Z,-1.80
2018-02-25T15:45:22.869Z,-1.80
2018-02-25T15:47:50.587Z,-1.90
2018-02-25T15:50:18.286Z,-1.90
2018-02-25T15:52:46.826Z,-1.90
2018-02-25T15:55:14.498Z,-2.00
2018-02-25T15:57:42.205Z,-2.00
2018-02-25T16:00:09.864Z,-2.10
2018-02-25T16:02:37.619Z,-2.10
2018-02-25T16:05:05.661Z,-2.10
2018-02-25T16:07:33.801Z,-2.10
2018-02-25T16:10:01.574Z,-2.10
2018-02-25T16:12:29.127Z,-2.10
2018-02-25T16:14:56.835Z,-2.10
2018-02-25T16:17:24.896Z,-2.20
2018-02-25T16:19:52.583Z,-2.20
2018-02-25T16:22:20.194Z,-2.20
2018-02-25T16:24:48.273Z,-2.30
2018-02-25T16:27:16.013Z,-2.20
2018-02-25T16:29:43.783Z,-2.30
2018-02-25T16:32:11.569Z,-2.30
2018-02-25T16:34:39.660Z,-2.30
2018-02-25T16:37:07.390Z,-2.30
2018-02-25T16:39:35.103Z,-2.40
2018-02-25T16:42:03.278Z,-2.40
2018-02-25T16:44:31.757Z,-2.40
2018-02-25T16:46:59.304Z,-2.50
2018-02-25T16:49:27.199Z,-2.50
2018-02-25T16:51:54.701Z,-2.50
2018-02-25T16:54:22.227Z,-2.50
2018-02-25T16:56:49.725Z,-2.60
2018-02-25T16:59:17.258Z,-2.60
2018-02-25T17:01:44.751Z,-2.60
2018-02-25T17:04:12.231Z,-2.70
2018-02-25T17:06:39.726Z,-2.70
2018-02-25T17:09:07.370Z,-2.70
2018-02-25T17:11:34.903Z,-2.80
2018-02-25T17:14:02.398Z,-2.80
2018-02-25T17:16:29.944Z,-2.80
2018-02-25T17:18:57.612Z,-2.90
2018-02-25T17:21:25.185Z,-2.90
2018-02-25T17:23:52.787Z,-2.90
2018-02-25T17:26:20.288Z,-2.90
2018-02-25T17:28:47.849Z,-3.00
2018-02-25T17:31:15.383Z,-3.00
2018-02-25T17:33:42.867Z,-3.00
2018-02-25T17:36:10.362Z,-3.10
2018-02-25T17:38:37.977Z,-3.10
2018-02-25T17:41:05.498Z,-3.10
2018-02-25T17:43:33.404Z,-3.10
2018-02-25T17:46:00.959Z,-3.10
2018-02-25T17:48:28.444Z,-3.10
2018-02-25T17:50:55.952Z,-3.20
2018-02-25T17:53:23.483Z,-3.20
2018-02-25T17:55:51.097Z,-3.20
2018-02-25T17:58:18.920Z,-3.30
2018-02-25T18:00:46.883Z,-3.30
2018-02-25T18:03:14.793Z,-3.30
2018-02-25T18:05:42.276Z,-3.30
2018-02-25T18:08:09.843Z,-3.30
2018-02-25T18:10:37.385Z,-3.40
2018-02-25T18:13:04.923Z,-3.40
2018-02-25T18:15:32.449Z,-3.40
2018-02-25T18:18:00.520Z,-3.50
2018-02-25T18:20:28.424Z,-3.50
2018-02-25T18:22:55.910Z,-3.50
2018-02-25T18:25:23.519Z,-3.60
2018-02-25T18:27:51.143Z,-3.60
2018-02-25T18:30:18.679Z,-3.60
2018-02-25T18:32:46.190Z,-3.70
2018-02-25T18:35:13.724Z,-3.70
2018-02-25T18:37:41.197Z,-3.80
2018-02-25T18:40:09.102Z,-3.80
2018-02-25T18:42:36.641Z,-3.80
2018-02-25T18:45:04.288Z,-3.80
2018-02-25T18:47:31.772Z,-3.90
2018-02-25T18:49:59.277Z,-4.00
2018-02-25T18:52:27.203Z,-4.00
2018-02-25T18:54:54.723Z,-4.00
2018-02-25T18:57:22.233Z,-4.10
2018-02-25T18:59:49.825Z,-4.10
2018-02-25T19:02:17.788Z,-4.10
2018-02-25T19:04:45.687Z,-4.10
2018-02-25T19:07:13.697Z,-4.20
2018-02-25T19:09:41.327Z,-4.20
2018-02-25T19:12:08.828Z,-4.20
2018-02-25T19:14:36.326Z,-4.20
2018-02-25T19:17:03.914Z,-4.30
2018-02-25T19:19:31.498Z,-4.30
2018-02-25T19:21:58.981Z,-4.30
2018-02-25T19:24:26.956Z,-4.30
2018-02-25T19:26:54.839Z,-4.40
2018-02-25T19:29:22.341Z,-4.40
2018-02-25T19:31:50.092Z,-4.40
2018-02-25T19:34:17.621Z,-4.40
2018-02-25T19:36:50.795Z,-4.30
2018-02-25T19:39:23.954Z,-4.30
2018-02-25T19:41:53.348Z,-4.30
2018-02-25T19:44:20.847Z,-4.20
2018-02-25T19:46:48.355Z,-4.20
2018-02-25T19:49:15.848Z,-4.10
2018-02-25T19:51:43.370Z,-4.10
2018-02-25T19:54:10.891Z,-4.10
2018-02-25T19:56:38.388Z,-4.10
2018-02-25T19:59:05.872Z,-4.00
2018-02-25T20:01:33.807Z,-4.00
2018-02-25T20:04:01.296Z,-4.00
2018-02-25T20:06:29.211Z,-3.90
2018-02-25T20:08:56.716Z,-3.90
2018-02-25T20:11:24.618Z,-3.90
2018-02-25T20:13:52.168Z,-3.90
2018-02-25T20:16:19.713Z,-3.90
2018-02-25T20:18:47.229Z,-3.90
2018-02-25T20:21:14.767Z,-3.90
2018-02-25T20:23:42.292Z,-3.90
2018-02-25T20:26:09.813Z,-3.90
2018-02-25T20:28:37.547Z,-3.90
2018-02-25T20:31:05.037Z,-3.80
2018-02-25T20:33:32.669Z,-3.80
2018-02-25T20:36:00.160Z,-3.80
2018-02-25T20:38:27.656Z,-3.80
2018-02-25T20:40:55.139Z,-3.70
2018-02-25T20:43:22.640Z,-3.70
2018-02-25T20:45:50.527Z,-3.70
2018-02-25T20:48:18.067Z,-3.70
2018-02-25T20:50:46.014Z,-3.60
2018-02-25T20:53:13.513Z,-3.60
2018-02-25T20:55:41.448Z,-3.60
2018-02-25T20:58:08.928Z,-3.60
2018-02-25T21:00:36.473Z,-3.60
2018-02-25T21:03:04.370Z,-3.60
2018-02-25T21:05:31.895Z,-3.60
2018-02-25T21:07:59.799Z,-3.60
2018-02-25T21:10:27.295Z,-3.60
2018-02-25T21:12:54.792Z,-3.60
2018-02-25T21:15:22.693Z,-3.60
2018-02-25T21:17:50.213Z,-3.60
2018-02-25T21:20:18.113Z,-3.60
2018-02-25T21:22:45.627Z,-3.60
2018-02-25T21:25:13.549Z,-3.50
2018-02-25T21:27:41.056Z,-3.50
2018-02-25T21:30:08.950Z,-3.50
2018-02-25T21:32:36.464Z,-3.50
2018-02-25T21:35:03.982Z,-3.50
2018-02-25T21:37:31.491Z,-3.50
2018-02-25T21:39:58.979Z,-3.50
2018-02-25T21:42:26.476Z,-3.50
2018-02-25T21:44:54.000Z,-3.50
2018-02-25T21:47:21.520Z,-3.50
2018-02-25T21:49:49.019Z,-3.50
2018-02-25T21:52:16.560Z,-3.50
2018-02-25T21:54:49.725Z,-3.50
2018-02-25T21:57:23.371Z,-3.50
2018-02-25T21:59:56.738Z,-3.50
2018-02-25T22:02:29.879Z,-3.50
2018-02-25T22:04:57.365Z,-3.50
2018-02-25T22:07:25.242Z,-3.50
2018-02-25T22:09:53.134Z,-3.60
2018-02-25T22:12:20.624Z,-3.60
2018-02-25T22:14:48.139Z,-3.60
2018-02-25T22:17:16.911Z,-3.60
2018-02-25T22:19:44.818Z,-3.60
2018-02-25T22:22:12.339Z,-3.60
2018-02-25T22:24:39.909Z,-3.60
2018-02-25T22:27:07.464Z,-3.60
2018-02-25T22:29:34.975Z,-3.60
2018-02-25T22:32:02.473Z,-3.60
2018-02-25T22:34:30.095Z,-3.60
2018-02-25T22:36:57.651Z,-3.60
2018-02-25T22:39:25.154Z,-3.60
2018-02-25T22:41:52.648Z,-3.70
2018-02-25T22:44:20.182Z,-3.60
2018-02-25T22:46:47.681Z,-3.60
2018-02-25T22:49:15.204Z,-3.70
2018-02-25T22:51:43.888Z,-3.60
2018-02-25T22:54:11.594Z,-3.60
2018-02-25T22:56:39.118Z,-3.60
2018-02-25T22:59:06.621Z,-3.60
2018-02-25T23:01:34.507Z,-3.70
2018-02-25T23:04:02.027Z,-3.70
2018-02-25T23:06:29.523Z,-3.70
2018-02-25T23:08:57.011Z,-3.70
2018-02-25T23:11:24.503Z,-3.70
2018-02-25T23:13:51.991Z,-3.70
2018-02-25T23:16:19.491Z,-3.70
2018-02-25T23:18:47.020Z,-3.70
2018-02-25T23:21:14.587Z,-3.70
2018-02-25T23:23:42.084Z,-3.70
2018-02-25T23:26:09.589Z,-3.70
2018-02-25T23:28:37.100Z,-3.70
2018-02-25T23:31:04.632Z,-3.70
2018-02-25T23:33:32.180Z,-3.80
2018-02-25T23:35:59.667Z,-3.80
2018-02-25T23:38:27.184Z,-3.80
2018-02-25T23:40:54.800Z,-3.80
2018-02-25T23:43:22.783Z,-3.80
2018-02-25T23:45:50.849Z,-3.80
2018-02-25T23:48:18.866Z,-3.80
2018-02-25T23:50:46.567Z,-3.80
2018-02-25T23:53:14.070Z,-3.80
2018-02-25T23:55:41.564Z,-3.80
2018-02-25T23:58:09.112Z,-3.80
